createdAt,value
2019-04-29T00:01:30.762Z,43.33
2019-04-29T00:03:33.855Z,43.35
2019-04-29T00:05:36.942Z,43.36
2019-04-29T00:07:40.004Z,43.35
2019-04-29T00:09:43.236Z,43.36
2019-04-29T00:11:46.371Z,43.37
2019-04-29T00:13:49.472Z,43.35
2019-04-29T00:15:52.541Z,43.34
2019-04-29T00:17:55.616Z,43.33
2019-04-29T00:19:59.825Z,43.33
2019-04-29T00:22:02.901Z,43.34
2019-04-29T00:24:06.001Z,43.33
2019-04-29T00:26:09.077Z,43.30
2019-04-29T00:28:12.237Z,43.33
2019-04-29T00:30:15.337Z,43.31
2019-04-29T00:32:18.400Z,43.32
2019-04-29T00:34:21.642Z,43.32
2019-04-29T00:36:24.712Z,43.30
2019-04-29T00:38:27.917Z,43.31
2019-04-29T00:40:31.041Z,43.32
2019-04-29T00:42:34.102Z,43.31
2019-04-29T00:44:37.262Z,43.35
2019-04-29T00:46:40.331Z,43.30
2019-04-29T00:48:43.427Z,43.29
2019-04-29T00:50:46.675Z,43.27
2019-04-29T00:52:49.897Z,43.29
2019-04-29T00:54:53.071Z,43.24
2019-04-29T00:56:56.172Z,43.24
2019-04-29T00:58:59.258Z,43.23
2019-04-29T01:01:02.492Z,43.22
2019-04-29T01:03:05.564Z,43.24
2019-04-29T01:05:08.786Z,43.23
2019-04-29T01:07:11.927Z,43.20
2019-04-29T01:09:15.008Z,43.20
2019-04-29T01:11:18.213Z,43.24
2019-04-29T01:13:21.482Z,43.21
2019-04-29T01:15:24.713Z,43.20
2019-04-29T01:17:27.910Z,43.22
2019-04-29T01:19:30.985Z,43.21
2019-04-29T01:21:34.099Z,43.23
2019-04-29T01:23:37.163Z,43.23
2019-04-29T01:25:40.261Z,43.21
2019-04-29T01:27:43.328Z,43.20
2019-04-29T01:29:46.521Z,43.21
2019-04-29T01:31:49.730Z,43.20
2019-04-29T01:33:52.791Z,43.21
2019-04-29T01:35:55.919Z,43.19
2019-04-29T01:37:59.040Z,43.21
2019-04-29T01:40:02.133Z,43.21
2019-04-29T01:42:05.220Z,43.21
2019-04-29T01:44:08.288Z,43.20
2019-04-29T01:46:11.396Z,43.19
2019-04-29T01:48:14.466Z,43.20
2019-04-29T01:50:17.620Z,43.18
2019-04-29T01:52:20.834Z,43.17
2019-04-29T01:54:23.903Z,43.19
2019-04-29T01:56:26.991Z,43.21
2019-04-29T01:58:30.054Z,43.17
2019-04-29T02:00:33.130Z,43.16
2019-04-29T02:02:36.223Z,43.18
2019-04-29T02:04:39.283Z,43.18
2019-04-29T02:06:42.382Z,43.20
2019-04-29T02:08:45.459Z,43.17
2019-04-29T02:10:48.654Z,43.20
2019-04-29T02:12:51.870Z,43.17
2019-04-29T02:14:55.078Z,43.17
2019-04-29T02:16:58.405Z,43.15
2019-04-29T02:19:01.657Z,43.17
2019-04-29T02:21:04.714Z,43.18
2019-04-29T02:23:07.799Z,43.18
2019-04-29T02:25:10.879Z,43.18
2019-04-29T02:27:13.989Z,43.19
2019-04-29T02:29:17.061Z,43.18
2019-04-29T02:31:20.132Z,43.19
2019-04-29T02:33:23.232Z,43.17
2019-04-29T02:35:26.298Z,43.15
2019-04-29T02:37:29.674Z,43.16
2019-04-29T02:39:32.766Z,43.16
2019-04-29T02:41:35.851Z,43.14
2019-04-29T02:43:38.951Z,43.12
2019-04-29T02:45:42.028Z,43.11
2019-04-29T02:47:45.116Z,43.11
2019-04-29T02:49:48.217Z,43.12
2019-04-29T02:51:51.432Z,43.13
2019-04-29T02:53:54.641Z,43.09
2019-04-29T02:55:57.705Z,43.10
2019-04-29T02:58:00.816Z,43.09
2019-04-29T03:00:04.034Z,43.09
2019-04-29T03:02:07.288Z,43.10
2019-04-29T03:04:10.353Z,43.10
2019-04-29T03:06:13.428Z,43.13
2019-04-29T03:08:16.623Z,43.09
2019-04-29T03:10:19.725Z,43.10
2019-04-29T03:12:22.920Z,43.06
2019-04-29T03:14:26.025Z,43.08
2019-04-29T03:16:29.107Z,43.10
2019-04-29T03:18:32.261Z,43.07
2019-04-29T03:20:35.334Z,43.07
2019-04-29T03:22:38.470Z,43.05
2019-04-29T03:24:41.541Z,43.05
2019-04-29T03:26:44.621Z,43.08
2019-04-29T03:28:47.720Z,43.09
2019-04-29T03:30:50.947Z,43.07
2019-04-29T03:32:54.019Z,43.08
2019-04-29T03:34:57.243Z,43.07
2019-04-29T03:37:00.469Z,43.05
2019-04-29T03:39:03.604Z,43.04
2019-04-29T03:41:06.669Z,43.03
2019-04-29T03:43:09.734Z,43.02
2019-04-29T03:45:12.949Z,43.04
2019-04-29T03:47:18.765Z,43.03
2019-04-29T03:49:20.247Z,43.01
2019-04-29T03:51:23.326Z,43.02
2019-04-29T03:53:28.340Z,43.00
2019-04-29T03:55:40.122Z,43.02
2019-04-29T03:57:35.073Z,43.01
2019-04-29T03:59:38.349Z,42.99
2019-04-29T04:01:41.414Z,42.99
2019-04-29T04:03:44.485Z,43.00
2019-04-29T04:05:47.599Z,42.98
2019-04-29T04:07:50.668Z,43.01
2019-04-29T04:09:53.816Z,43.00
2019-04-29T04:11:56.922Z,42.98
2019-04-29T04:13:59.991Z,42.95
2019-04-29T04:16:03.082Z,42.96
2019-04-29T04:18:06.152Z,42.94
2019-04-29T04:20:09.277Z,42.92
2019-04-29T04:22:12.465Z,42.94
2019-04-29T04:24:15.527Z,42.94
2019-04-29T04:26:18.623Z,42.94
2019-04-29T04:28:21.696Z,42.94
2019-04-29T04:30:24.898Z,42.94
2019-04-29T04:32:27.979Z,42.92
2019-04-29T04:34:31.037Z,42.90
2019-04-29T04:36:34.120Z,42.88
2019-04-29T04:38:37.208Z,42.88
2019-04-29T04:40:40.290Z,42.88
2019-04-29T04:42:43.360Z,42.88
2019-04-29T04:44:46.436Z,42.88
2019-04-29T04:46:49.549Z,42.91
2019-04-29T04:48:52.611Z,42.93
2019-04-29T04:50:55.769Z,42.98
2019-04-29T04:52:58.842Z,43.00
2019-04-29T04:55:01.918Z,42.97
2019-04-29T04:57:05.127Z,42.99
2019-04-29T04:59:08.193Z,42.97
2019-04-29T05:01:11.311Z,41.88
2019-04-29T05:03:14.399Z,40.76
2019-04-29T05:05:17.541Z,40.49
2019-04-29T05:07:20.636Z,40.38
2019-04-29T05:09:23.936Z,40.41
2019-04-29T05:11:27.179Z,39.82
2019-04-29T05:13:30.284Z,39.45
2019-04-29T05:15:33.504Z,39.22
2019-04-29T05:17:36.587Z,39.25
2019-04-29T05:19:39.668Z,38.96
2019-04-29T05:21:42.732Z,38.88
2019-04-29T05:23:45.839Z,38.99
2019-04-29T05:25:48.895Z,39.50
2019-04-29T05:27:52.002Z,39.43
2019-04-29T05:29:55.086Z,39.49
2019-04-29T05:31:58.165Z,39.58
2019-04-29T05:34:01.257Z,39.64
2019-04-29T05:36:04.484Z,38.35
2019-04-29T05:38:07.660Z,38.84
2019-04-29T05:40:10.730Z,39.01
2019-04-29T05:42:17.154Z,39.10
2019-04-29T05:44:19.139Z,39.18
2019-04-29T05:46:23.275Z,39.43
2019-04-29T05:48:27.582Z,39.63
2019-04-29T05:50:30.762Z,39.83
2019-04-29T05:52:34.778Z,40.00
2019-04-29T05:54:38.603Z,40.11
2019-04-29T05:56:41.685Z,40.17
2019-04-29T05:58:44.781Z,40.28
2019-04-29T06:00:47.871Z,40.34
2019-04-29T06:02:51.072Z,40.44
2019-04-29T06:04:54.612Z,40.52
2019-04-29T06:06:57.801Z,41.84
2019-04-29T06:09:01.011Z,41.08
2019-04-29T06:11:04.267Z,40.97
2019-04-29T06:13:07.454Z,41.18
2019-04-29T06:15:10.558Z,41.01
2019-04-29T06:17:13.920Z,41.23
2019-04-29T06:19:17.217Z,41.10
2019-04-29T06:21:20.341Z,40.74
2019-04-29T06:23:24.325Z,40.43
2019-04-29T06:25:27.503Z,40.38
2019-04-29T06:27:33.281Z,40.77
2019-04-29T06:29:34.747Z,41.50
2019-04-29T06:31:38.258Z,41.01
2019-04-29T06:33:41.366Z,41.08
2019-04-29T06:35:47.350Z,41.05
2019-04-29T06:37:49.100Z,41.79
2019-04-29T06:39:52.324Z,41.47
2019-04-29T06:41:57.332Z,41.90
2019-04-29T06:44:05.208Z,41.56
2019-04-29T06:46:06.197Z,41.50
2019-04-29T06:48:09.553Z,41.45
2019-04-29T06:50:12.911Z,41.49
2019-04-29T06:52:16.170Z,41.61
2019-04-29T06:54:20.205Z,41.55
2019-04-29T06:56:23.473Z,41.56
2019-04-29T06:58:26.630Z,41.59
2019-04-29T07:00:30.421Z,41.59
2019-04-29T07:02:33.654Z,41.73
2019-04-29T07:04:39.604Z,41.71
2019-04-29T07:06:56.748Z,41.73
2019-04-29T07:08:50.283Z,41.83
2019-04-29T07:11:31.887Z,41.82
2019-04-29T07:13:32.787Z,41.78
2019-04-29T07:15:36.466Z,41.96
2019-04-29T07:17:41.327Z,41.99
2019-04-29T07:19:44.345Z,42.08
2019-04-29T07:21:51.494Z,42.07
2019-04-29T07:23:52.636Z,42.08
2019-04-29T07:25:55.739Z,42.15
2019-04-29T07:27:59.552Z,42.21
2019-04-29T07:30:10.196Z,42.28
2019-04-29T07:32:14.826Z,42.33
2019-04-29T07:34:18.285Z,42.63
2019-04-29T07:36:22.868Z,42.47
2019-04-29T07:38:40.290Z,42.21
2019-04-29T07:40:31.078Z,42.02
2019-04-29T07:42:34.464Z,41.87
2019-04-29T07:44:44.157Z,41.84
2019-04-29T07:46:56.283Z,41.88
2019-04-29T07:49:00.789Z,41.79
2019-04-29T07:50:54.716Z,41.89
2019-04-29T07:52:58.481Z,41.78
2019-04-29T07:55:01.689Z,41.81
2019-04-29T07:57:04.856Z,41.77
2019-04-29T07:59:11.127Z,41.61
2019-04-29T08:01:13.477Z,41.85
2019-04-29T08:03:16.863Z,41.69
2019-04-29T08:05:20.961Z,41.75
2019-04-29T08:07:25.057Z,41.68
2019-04-29T08:09:28.293Z,41.81
2019-04-29T08:11:32.078Z,41.71
2019-04-29T08:13:35.855Z,41.57
2019-04-29T08:15:41.729Z,41.66
2019-04-29T08:17:43.742Z,41.60
2019-04-29T08:19:47.032Z,41.60
2019-04-29T08:21:51.320Z,41.62
2019-04-29T08:23:54.897Z,41.58
2019-04-29T08:26:02.576Z,41.59
2019-04-29T08:28:03.936Z,41.54
2019-04-29T08:30:11.359Z,41.56
2019-04-29T08:32:11.693Z,41.59
2019-04-29T08:34:18.613Z,41.46
2019-04-29T08:36:20.317Z,41.54
2019-04-29T08:38:23.512Z,41.42
2019-04-29T08:40:27.513Z,41.54
2019-04-29T08:42:31.189Z,41.70
2019-04-29T08:44:34.799Z,41.70
2019-04-29T08:46:37.995Z,41.43
2019-04-29T08:48:41.167Z,41.38
2019-04-29T08:50:44.707Z,41.30
2019-04-29T08:52:48.011Z,41.29
2019-04-29T08:54:55.468Z,41.17
2019-04-29T08:57:03.147Z,41.03
2019-04-29T08:59:00.665Z,41.03
2019-04-29T09:01:04.653Z,41.24
2019-04-29T09:03:08.094Z,41.27
2019-04-29T09:05:13.148Z,40.85
2019-04-29T09:07:17.584Z,41.00
2019-04-29T09:09:28.997Z,41.01
2019-04-29T09:11:26.945Z,41.11
2019-04-29T09:13:30.051Z,41.14
2019-04-29T09:15:33.503Z,41.02
2019-04-29T09:17:36.833Z,40.93
2019-04-29T09:19:40.198Z,40.81
2019-04-29T09:21:43.549Z,40.88
2019-04-29T09:23:47.305Z,40.90
2019-04-29T09:26:02.003Z,40.83
2019-04-29T09:27:56.447Z,40.67
2019-04-29T09:30:00.567Z,40.81
2019-04-29T09:32:03.788Z,40.80
2019-04-29T09:34:07.153Z,40.64
2019-04-29T09:36:13.971Z,40.70
2019-04-29T09:38:15.959Z,40.73
2019-04-29T09:40:19.739Z,40.74
2019-04-29T09:42:23.138Z,40.73
2019-04-29T09:44:26.564Z,40.61
2019-04-29T09:46:34.359Z,40.47
2019-04-29T09:48:34.599Z,40.56
2019-04-29T09:50:39.007Z,40.57
2019-04-29T09:52:42.831Z,40.60
2019-04-29T09:54:46.448Z,40.64
2019-04-29T09:56:49.907Z,40.57
2019-04-29T09:58:53.163Z,40.64
2019-04-29T10:00:58.358Z,40.50
2019-04-29T10:03:02.871Z,40.55
2019-04-29T10:05:06.425Z,40.46
2019-04-29T10:07:09.743Z,40.33
2019-04-29T10:09:13.055Z,40.38
2019-04-29T10:11:16.676Z,40.40
2019-04-29T10:13:20.117Z,40.25
2019-04-29T10:15:24.068Z,40.51
2019-04-29T10:17:28.490Z,40.45
2019-04-29T10:19:31.614Z,40.46
2019-04-29T10:21:38.019Z,40.44
2019-04-29T10:23:41.342Z,40.32
2019-04-29T10:25:44.691Z,40.40
2019-04-29T10:27:47.897Z,40.21
2019-04-29T10:29:55.372Z,40.21
2019-04-29T10:31:55.831Z,40.01
2019-04-29T10:33:59.448Z,39.90
2019-04-29T10:36:02.942Z,39.83
2019-04-29T10:38:06.045Z,39.98
2019-04-29T10:40:11.280Z,39.28
2019-04-29T10:42:13.738Z,39.59
2019-04-29T10:44:16.935Z,39.79
2019-04-29T10:46:20.221Z,39.81
2019-04-29T10:48:23.678Z,39.66
2019-04-29T10:50:27.451Z,39.52
2019-04-29T10:52:34.431Z,39.60
2019-04-29T10:54:35.889Z,39.54
2019-04-29T10:56:41.041Z,39.49
2019-04-29T10:58:43.966Z,39.45
2019-04-29T11:00:47.222Z,39.45
2019-04-29T11:02:51.131Z,39.50
2019-04-29T11:04:54.850Z,39.44
2019-04-29T11:06:57.982Z,39.04
2019-04-29T11:09:01.459Z,39.12
2019-04-29T11:11:05.690Z,39.15
2019-04-29T11:13:09.176Z,39.26
2019-04-29T11:15:13.924Z,39.41
2019-04-29T11:17:17.434Z,39.38
2019-04-29T11:19:20.666Z,39.27
2019-04-29T11:21:25.087Z,39.27
2019-04-29T11:23:29.257Z,39.20
2019-04-29T11:25:33.281Z,39.12
2019-04-29T11:27:36.530Z,39.00
2019-04-29T11:29:40.040Z,38.98
2019-04-29T11:31:43.152Z,39.01
2019-04-29T11:33:46.365Z,39.23
2019-04-29T11:35:49.506Z,39.23
2019-04-29T11:37:55.373Z,39.15
2019-04-29T11:39:58.245Z,39.02
2019-04-29T11:42:01.684Z,38.72
2019-04-29T11:44:04.936Z,38.66
2019-04-29T11:46:09.920Z,38.53
2019-04-29T11:48:13.045Z,39.06
2019-04-29T11:50:16.370Z,39.06
2019-04-29T11:52:23.626Z,39.00
2019-04-29T11:54:24.732Z,39.11
2019-04-29T11:56:28.092Z,39.19
2019-04-29T11:58:31.358Z,39.50
2019-04-29T12:00:35.012Z,39.69
2019-04-29T12:02:45.403Z,39.79
2019-04-29T12:04:42.735Z,39.99
2019-04-29T12:06:46.417Z,40.19
2019-04-29T12:08:53.196Z,40.31
2019-04-29T12:11:06.711Z,40.30
2019-04-29T12:13:00.490Z,40.33
2019-04-29T12:15:03.724Z,40.53
2019-04-29T12:17:06.989Z,40.85
2019-04-29T12:19:10.344Z,40.83
2019-04-29T12:21:13.579Z,40.84
2019-04-29T12:23:19.335Z,41.12
2019-04-29T12:25:28.984Z,40.91
2019-04-29T12:27:34.195Z,41.21
2019-04-29T12:29:37.546Z,40.98
2019-04-29T12:31:40.781Z,40.96
2019-04-29T12:33:44.226Z,41.05
2019-04-29T12:35:52.102Z,41.10
2019-04-29T12:37:52.101Z,40.95
2019-04-29T12:39:55.441Z,40.92
2019-04-29T12:42:00.650Z,40.88
2019-04-29T12:44:03.434Z,40.79
2019-04-29T12:46:10.142Z,40.91
2019-04-29T12:48:23.962Z,40.80
2019-04-29T12:50:17.421Z,40.81
2019-04-29T12:52:21.678Z,40.89
2019-04-29T12:54:24.924Z,40.85
2019-04-29T12:56:28.012Z,40.87
2019-04-29T12:58:31.245Z,40.94
2019-04-29T13:00:46.783Z,40.96
2019-04-29T13:02:39.315Z,41.04
2019-04-29T13:04:45.235Z,40.95
2019-04-29T13:06:47.425Z,41.35
2019-04-29T13:08:50.666Z,41.39
2019-04-29T13:10:54.248Z,41.40
2019-04-29T13:12:58.237Z,41.42
2019-04-29T13:15:03.243Z,41.54
2019-04-29T13:17:14.474Z,41.57
2019-04-29T13:19:14.482Z,41.52
2019-04-29T13:21:15.329Z,41.62
2019-04-29T13:23:33.609Z,41.61
2019-04-29T13:25:26.721Z,41.64
2019-04-29T13:27:28.595Z,41.67
2019-04-29T13:29:36.102Z,41.61
2019-04-29T13:31:38.791Z,41.50
2019-04-29T13:33:46.037Z,41.70
2019-04-29T13:35:49.707Z,41.31
2019-04-29T13:37:53.295Z,41.31
2019-04-29T13:39:56.840Z,41.60
2019-04-29T13:42:03.037Z,41.62
2019-04-29T13:44:07.347Z,41.57
2019-04-29T13:46:09.380Z,41.41
2019-04-29T13:48:12.696Z,41.31
2019-04-29T13:50:23.613Z,41.40
2019-04-29T13:52:20.670Z,41.28
2019-04-29T13:54:23.891Z,41.36
2019-04-29T13:56:39.433Z,41.61
2019-04-29T13:58:32.134Z,41.60
2019-04-29T14:00:36.647Z,41.60
2019-04-29T14:02:39.935Z,41.61
2019-04-29T14:04:43.176Z,41.39
2019-04-29T14:06:56.528Z,41.44
2019-04-29T14:08:54.055Z,41.29
2019-04-29T14:10:55.750Z,41.37
2019-04-29T14:13:09.897Z,41.91
2019-04-29T14:15:03.213Z,41.34
2019-04-29T14:17:17.421Z,41.50
2019-04-29T14:19:11.396Z,41.28
2019-04-29T14:21:14.671Z,41.41
2019-04-29T14:23:18.673Z,41.42
2019-04-29T14:25:22.180Z,41.18
2019-04-29T14:27:25.669Z,41.15
2019-04-29T14:29:30.289Z,41.25
2019-04-29T14:31:33.830Z,41.17
2019-04-29T14:33:37.198Z,39.19
2019-04-29T14:35:43.900Z,39.00
2019-04-29T14:37:54.883Z,39.85
2019-04-29T14:39:49.872Z,40.82
2019-04-29T14:41:55.436Z,40.01
2019-04-29T14:43:58.105Z,40.11
2019-04-29T14:46:01.597Z,40.13
2019-04-29T14:48:04.649Z,40.11
2019-04-29T14:50:10.722Z,40.11
2019-04-29T14:52:13.123Z,40.11
2019-04-29T14:54:17.022Z,40.19
2019-04-29T14:56:20.253Z,39.48
2019-04-29T14:58:23.469Z,39.76
2019-04-29T15:00:26.970Z,39.69
2019-04-29T15:02:30.519Z,39.81
2019-04-29T15:04:33.621Z,39.86
2019-04-29T15:06:36.955Z,39.91
2019-04-29T15:08:40.115Z,39.81
2019-04-29T15:10:43.360Z,39.89
2019-04-29T15:14:22.968Z,39.96
2019-04-29T15:16:21.684Z,39.90
2019-04-29T15:18:45.425Z,39.95
2019-04-29T15:20:30.285Z,39.99
2019-04-29T15:22:34.049Z,39.97
2019-04-29T15:24:37.274Z,40.01
2019-04-29T15:26:40.746Z,39.98
2019-04-29T15:28:43.964Z,39.96
2019-04-29T15:30:47.360Z,39.97
2019-04-29T15:32:53.002Z,39.97
2019-04-29T15:34:55.268Z,40.03
2019-04-29T15:36:58.540Z,40.04
2019-04-29T15:39:09.767Z,40.02
2019-04-29T15:41:06.147Z,40.02
2019-04-29T15:43:09.903Z,39.96
2019-04-29T15:45:13.159Z,40.07
2019-04-29T15:47:16.309Z,39.08
2019-04-29T15:49:20.198Z,39.32
2019-04-29T15:51:24.016Z,39.30
2019-04-29T15:53:27.263Z,39.36
2019-04-29T15:55:30.492Z,39.31
2019-04-29T15:57:33.578Z,39.03
2019-04-29T15:59:48.476Z,38.88
2019-04-29T16:01:42.171Z,38.90
2019-04-29T16:03:49.844Z,38.89
2019-04-29T16:06:11.137Z,38.73
2019-04-29T16:07:55.650Z,38.88
2019-04-29T16:09:59.698Z,38.77
2019-04-29T16:12:05.097Z,38.88
2019-04-29T16:14:09.859Z,38.87
2019-04-29T16:16:11.983Z,38.87
2019-04-29T16:18:15.175Z,39.05
2019-04-29T16:20:18.825Z,39.10
2019-04-29T16:22:22.278Z,39.13
2019-04-29T16:26:53.220Z,39.28
2019-04-29T16:28:52.363Z,39.25
2019-04-29T16:30:55.569Z,39.17
2019-04-29T16:32:58.680Z,39.18
2019-04-29T16:35:01.772Z,39.22
2019-04-29T16:37:04.901Z,39.19
2019-04-29T16:39:08.329Z,39.26
2019-04-29T16:41:19.110Z,39.33
2019-04-29T16:43:16.330Z,39.42
2019-04-29T16:45:19.497Z,39.35
2019-04-29T16:47:22.682Z,39.37
2019-04-29T16:49:25.784Z,39.58
2019-04-29T16:51:28.872Z,39.68
2019-04-29T16:53:32.105Z,39.67
2019-04-29T16:55:35.792Z,39.68
2019-04-29T16:57:39.764Z,39.75
2019-04-29T16:59:43.888Z,39.91
2019-04-29T17:01:47.078Z,39.98
2019-04-29T17:03:50.308Z,40.09
2019-04-29T17:05:53.929Z,40.23
2019-04-29T17:07:57.013Z,40.25
2019-04-29T17:10:00.099Z,40.19
2019-04-29T17:12:03.214Z,40.23
2019-04-29T17:14:10.110Z,40.14
2019-04-29T17:16:10.902Z,40.13
2019-04-29T17:19:43.204Z,40.21
2019-04-29T17:21:46.269Z,40.34
2019-04-29T17:23:49.475Z,40.21
2019-04-29T17:25:52.674Z,40.25
2019-04-29T17:27:55.777Z,40.27
2019-04-29T17:30:03.928Z,40.32
2019-04-29T17:32:04.120Z,40.36
2019-04-29T17:34:08.397Z,40.92
2019-04-29T17:36:11.915Z,40.61
2019-04-29T17:38:15.179Z,40.69
2019-04-29T17:40:19.477Z,40.82
2019-04-29T17:42:22.907Z,41.10
2019-04-29T17:44:26.275Z,41.14
2019-04-29T17:46:29.494Z,41.21
2019-04-29T17:48:33.225Z,41.34
2019-04-29T17:50:39.251Z,41.34
2019-04-29T17:52:41.094Z,41.48
2019-04-29T17:54:44.996Z,41.57
2019-04-29T17:56:48.162Z,41.58
2019-04-29T17:58:53.866Z,41.70
2019-04-29T18:00:59.388Z,41.67
2019-04-29T18:03:00.931Z,41.82
2019-04-29T18:05:05.622Z,42.81
2019-04-29T18:07:12.172Z,42.13
2019-04-29T18:09:15.741Z,41.90
2019-04-29T18:11:18.741Z,41.97
2019-04-29T18:13:24.623Z,41.92
2019-04-29T18:15:26.061Z,42.62
2019-04-29T18:17:31.150Z,44.43
2019-04-29T18:19:34.809Z,44.90
2019-04-29T18:21:43.490Z,44.90
2019-04-29T18:23:42.746Z,44.81
2019-04-29T18:25:46.118Z,44.66
2019-04-29T18:27:53.532Z,44.71
2019-04-29T18:29:55.092Z,44.80
2019-04-29T18:32:00.522Z,45.64
2019-04-29T18:34:03.163Z,45.56
2019-04-29T18:36:07.079Z,45.91
2019-04-29T18:38:11.931Z,45.63
2019-04-29T18:40:16.064Z,45.65
2019-04-29T18:42:19.960Z,45.46
2019-04-29T18:44:23.048Z,45.76
2019-04-29T18:46:26.177Z,45.70
2019-04-29T18:48:29.289Z,46.20
2019-04-29T18:50:34.212Z,45.50
2019-04-29T18:52:36.826Z,45.74
2019-04-29T18:54:40.131Z,45.76
2019-04-29T18:56:43.238Z,45.39
2019-04-29T18:58:50.379Z,45.09
2019-04-29T19:00:53.917Z,44.83
2019-04-29T19:02:58.403Z,44.49
2019-04-29T19:05:00.741Z,44.54
2019-04-29T19:07:05.410Z,44.54
2019-04-29T19:09:17.798Z,44.60
2019-04-29T19:11:15.172Z,44.65
2019-04-29T19:13:18.268Z,44.46
2019-04-29T19:15:21.632Z,44.16
2019-04-29T19:17:25.792Z,44.09
2019-04-29T19:19:30.880Z,44.07
2019-04-29T19:21:33.244Z,44.42
2019-04-29T19:23:36.327Z,44.29
2019-04-29T19:25:41.587Z,44.36
2019-04-29T19:27:45.895Z,44.37
2019-04-29T19:29:48.992Z,44.27
2019-04-29T19:31:52.160Z,44.24
2019-04-29T19:33:57.348Z,44.27
2019-04-29T19:36:00.231Z,44.19
2019-04-29T19:38:05.138Z,44.37
2019-04-29T19:40:08.379Z,44.23
2019-04-29T19:42:11.894Z,44.29
2019-04-29T19:44:15.531Z,44.17
2019-04-29T19:46:24.108Z,44.18
2019-04-29T19:48:26.974Z,44.30
2019-04-29T19:50:28.006Z,44.23
2019-04-29T19:52:31.901Z,44.43
2019-04-29T19:54:35.777Z,44.32
2019-04-29T19:56:39.637Z,44.05
2019-04-29T19:58:43.060Z,43.94
2019-04-29T20:00:47.534Z,44.15
2019-04-29T20:02:51.629Z,44.24
2019-04-29T20:04:58.992Z,44.24
2019-04-29T20:07:05.828Z,45.25
2019-04-29T20:09:15.999Z,45.24
2019-04-29T20:11:14.714Z,45.01
2019-04-29T20:13:13.230Z,44.75
2019-04-29T20:15:17.105Z,44.70
2019-04-29T20:17:20.958Z,44.63
2019-04-29T20:19:27.151Z,44.83
2019-04-29T20:21:30.836Z,45.08
2019-04-29T20:25:21.935Z,44.47
2019-04-29T20:25:39.053Z,44.44
2019-04-29T20:27:43.443Z,44.49
2019-04-29T20:29:46.892Z,44.23
2019-04-29T20:31:53.255Z,44.12
2019-04-29T20:33:57.964Z,44.08
2019-04-29T20:36:02.184Z,44.10
2019-04-29T20:38:05.376Z,44.19
2019-04-29T20:40:08.066Z,44.19
2019-04-29T20:42:11.733Z,44.08
2019-04-29T20:44:16.236Z,43.91
2019-04-29T20:46:19.855Z,43.84
2019-04-29T20:48:23.123Z,43.74
2019-04-29T20:50:26.468Z,43.69
2019-04-29T20:52:31.069Z,43.69
2019-04-29T20:54:35.451Z,43.62
2019-04-29T20:56:38.889Z,43.58
2019-04-29T20:58:44.340Z,43.58
2019-04-29T21:00:47.143Z,43.57
2019-04-29T21:02:50.430Z,43.49
2019-04-29T21:04:57.780Z,43.50
2019-04-29T21:07:01.981Z,43.57
2019-04-29T21:09:03.334Z,43.54
2019-04-29T21:11:06.889Z,43.59
2019-04-29T21:13:16.362Z,43.56
2019-04-29T21:15:16.295Z,43.57
2019-04-29T21:17:28.511Z,43.56
2019-04-29T21:19:23.277Z,43.53
2019-04-29T21:21:26.389Z,43.50
2019-04-29T21:23:35.401Z,43.48
2019-04-29T21:25:37.155Z,43.45
2019-04-29T21:27:40.277Z,43.41
2019-04-29T21:29:43.538Z,43.43
2019-04-29T21:34:02.874Z,43.42
2019-04-29T21:36:06.095Z,43.42
2019-04-29T21:38:09.168Z,43.42
2019-04-29T21:40:16.834Z,43.42
2019-04-29T21:42:16.992Z,43.41
2019-04-29T21:44:23.696Z,43.39
2019-04-29T21:46:29.115Z,43.36
2019-04-29T21:48:33.617Z,43.37
2019-04-29T21:50:37.902Z,43.36
2019-04-29T21:52:38.445Z,43.34
2019-04-29T21:54:44.516Z,43.37
2019-04-29T21:56:47.813Z,43.36
2019-04-29T21:58:50.186Z,43.37
2019-04-29T22:00:55.917Z,43.36
2019-04-29T22:02:59.015Z,43.37
2019-04-29T22:05:02.132Z,43.39
2019-04-29T22:07:07.961Z,43.35
2019-04-29T22:09:09.444Z,43.37
2019-04-29T22:11:12.542Z,43.38
2019-04-29T22:13:15.623Z,43.38
2019-04-29T22:15:29.760Z,43.38
2019-04-29T22:17:26.327Z,43.39
2019-04-29T22:19:28.158Z,43.40
2019-04-29T22:21:31.331Z,43.38
2019-04-29T22:23:35.288Z,43.37
2019-04-29T22:25:41.130Z,43.36
2019-04-29T22:27:42.682Z,43.34
2019-04-29T22:29:47.527Z,43.34
2019-04-29T22:31:50.024Z,43.34
2019-04-29T22:33:53.093Z,43.34
2019-04-29T22:35:56.185Z,43.35
2019-04-29T22:37:59.301Z,43.34
2019-04-29T22:40:03.092Z,43.34
2019-04-29T22:42:06.612Z,43.34
2019-04-29T22:44:09.928Z,43.35
2019-04-29T22:46:13.028Z,43.34
2019-04-29T22:48:19.557Z,43.34
2019-04-29T22:50:20.438Z,43.33
2019-04-29T22:52:25.578Z,43.35
2019-04-29T22:54:27.856Z,43.34
2019-04-29T22:56:31.098Z,43.33
2019-04-29T22:58:35.086Z,43.32
2019-04-29T23:00:38.337Z,43.33
2019-04-29T23:02:41.926Z,43.32
2019-04-29T23:04:49.065Z,43.34
2019-04-29T23:06:49.344Z,43.32
2019-04-29T23:08:52.436Z,43.33
2019-04-29T23:10:59.747Z,43.34
2019-04-29T23:13:00.107Z,43.39
2019-04-29T23:15:03.175Z,43.37
2019-04-29T23:17:12.045Z,43.39
2019-04-29T23:19:14.048Z,43.40
2019-04-29T23:21:16.515Z,43.38
2019-04-29T23:23:19.679Z,43.40
2019-04-29T23:25:26.666Z,43.42
2019-04-29T23:27:27.010Z,43.41
2019-04-29T23:29:30.100Z,43.43
2019-04-29T23:31:33.193Z,43.41
2019-04-29T23:33:36.294Z,43.42
2019-04-29T23:35:39.997Z,43.43
2019-04-29T23:37:45.808Z,43.43
2019-04-29T23:39:48.413Z,43.44
2019-04-29T23:41:51.504Z,43.43
2019-04-29T23:43:55.581Z,43.42
2019-04-29T23:46:00.581Z,43.42
2019-04-29T23:48:05.512Z,43.43
2019-04-29T23:50:08.367Z,43.44
2019-04-29T23:52:13.328Z,43.41
2019-04-29T23:54:15.665Z,43.41
2019-04-29T23:56:18.802Z,43.41
2019-04-29T23:58:21.892Z,43.42
